sensor_id;sensor_type;location;lat;lon;timestamp;P1;durP1;ratioP1;P2;durP2;ratioP2
11046;SDS011;5576;50.008;10.596;2023-05-10T00:01:51;4.43;;;4.03;;
11046;SDS011;5576;50.008;10.596;2023-05-10T00:04:17;5.75;;;4.10;;
11046;SDS011;5576;50.008;10.596;2023-05-10T00:06:42;6.63;;;4.50;;
11046;SDS011;5576;50.008;10.596;2023-05-10T00:09:08;7.07;;;4.30;;
11046;SDS011;5576;50.008;10.596;2023-05-10T00:11:34;4.90;;;4.50;;
11046;SDS011;5576;50.008;10.596;2023-05-10T00:13:59;4.90;;;4.50;;
11046;SDS011;5576;50.008;10.596;2023-05-10T00:16:25;6.93;;;4.82;;
11046;SDS011;5576;50.008;10.596;2023-05-10T00:18:51;5.50;;;5.00;;
11046;SDS011;5576;50.008;10.596;2023-05-10T00:21:17;5.13;;;4.68;;
11046;SDS011;5576;50.008;10.596;2023-05-10T00:23:42;5.33;;;4.80;;
11046;SDS011;5576;50.008;10.596;2023-05-10T00:26:08;5.25;;;4.75;;
11046;SDS011;5576;50.008;10.596;2023-05-10T00:28:36;5.80;;;4.80;;
11046;SDS011;5576;50.008;10.596;2023-05-10T00:31:02;5.32;;;4.82;;
11046;SDS011;5576;50.008;10.596;2023-05-10T00:33:28;5.63;;;4.72;;
11046;SDS011;5576;50.008;10.596;2023-05-10T00:35:54;5.28;;;4.78;;
11046;SDS011;5576;50.008;10.596;2023-05-10T00:38:20;5.20;;;4.70;;
11046;SDS011;5576;50.008;10.596;2023-05-10T00:40:46;5.68;;;5.18;;
11046;SDS011;5576;50.008;10.596;2023-05-10T00:43:19;5.70;;;5.00;;
11046;SDS011;5576;50.008;10.596;2023-05-10T00:45:46;5.60;;;5.07;;
11046;SDS011;5576;50.008;10.596;2023-05-10T00:48:12;6.07;;;4.78;;
11046;SDS011;5576;50.008;10.596;2023-05-10T00:50:38;4.80;;;4.40;;
11046;SDS011;5576;50.008;10.596;2023-05-10T00:53:05;5.27;;;4.50;;
11046;SDS011;5576;50.008;10.596;2023-05-10T00:55:31;5.13;;;4.20;;
11046;SDS011;5576;50.008;10.596;2023-05-10T00:57:57;5.80;;;4.20;;
11046;SDS011;5576;50.008;10.596;2023-05-10T01:00:23;4.85;;;4.15;;
11046;SDS011;5576;50.008;10.596;2023-05-10T01:02:48;4.53;;;4.13;;
11046;SDS011;5576;50.008;10.596;2023-05-10T01:05:15;4.45;;;4.05;;
11046;SDS011;5576;50.008;10.596;2023-05-10T01:07:41;4.75;;;4.30;;
11046;SDS011;5576;50.008;10.596;2023-05-10T01:10:08;5.80;;;4.07;;
11046;SDS011;5576;50.008;10.596;2023-05-10T01:12:35;4.65;;;4.25;;
11046;SDS011;5576;50.008;10.596;2023-05-10T01:15:05;5.60;;;4.10;;
11046;SDS011;5576;50.008;10.596;2023-05-10T01:17:33;4.97;;;4.43;;
11046;SDS011;5576;50.008;10.596;2023-05-10T01:20:00;4.70;;;3.97;;
11046;SDS011;5576;50.008;10.596;2023-05-10T01:27:57;5.72;;;4.65;;
11046;SDS011;5576;50.008;10.596;2023-05-10T01:33:42;4.55;;;4.10;;
11046;SDS011;5576;50.008;10.596;2023-05-10T01:36:31;5.00;;;4.40;;
11046;SDS011;5576;50.008;10.596;2023-05-10T01:39:09;5.20;;;4.00;;
11046;SDS011;5576;50.008;10.596;2023-05-10T01:41:45;5.53;;;4.20;;
11046;SDS011;5576;50.008;10.596;2023-05-10T01:44:34;4.30;;;3.90;;
11046;SDS011;5576;50.008;10.596;2023-05-10T01:47:24;4.53;;;4.13;;
11046;SDS011;5576;50.008;10.596;2023-05-10T01:49:52;4.50;;;4.00;;
11046;SDS011;5576;50.008;10.596;2023-05-10T01:52:22;5.95;;;4.43;;
11046;SDS011;5576;50.008;10.596;2023-05-10T01:54:56;4.40;;;4.00;;
11046;SDS011;5576;50.008;10.596;2023-05-10T01:57:27;4.88;;;4.45;;
11046;SDS011;5576;50.008;10.596;2023-05-10T01:59:58;4.93;;;3.97;;
11046;SDS011;5576;50.008;10.596;2023-05-10T02:02:40;5.30;;;4.25;;
11046;SDS011;5576;50.008;10.596;2023-05-10T02:05:11;6.90;;;4.35;;
11046;SDS011;5576;50.008;10.596;2023-05-10T02:07:38;6.85;;;4.68;;
11046;SDS011;5576;50.008;10.596;2023-05-10T02:10:06;7.68;;;4.70;;
11046;SDS011;5576;50.008;10.596;2023-05-10T02:12:36;4.60;;;4.20;;
11046;SDS011;5576;50.008;10.596;2023-05-10T02:15:04;4.75;;;4.30;;
11046;SDS011;5576;50.008;10.596;2023-05-10T02:17:32;7.22;;;4.28;;
11046;SDS011;5576;50.008;10.596;2023-05-10T02:20:00;4.82;;;4.40;;
11046;SDS011;5576;50.008;10.596;2023-05-10T02:22:29;5.70;;;4.25;;
11046;SDS011;5576;50.008;10.596;2023-05-10T02:24:57;4.40;;;4.00;;
11046;SDS011;5576;50.008;10.596;2023-05-10T02:27:24;4.90;;;4.40;;
11046;SDS011;5576;50.008;10.596;2023-05-10T02:29:52;5.32;;;4.82;;
11046;SDS011;5576;50.008;10.596;2023-05-10T02:32:21;5.60;;;5.00;;
11046;SDS011;5576;50.008;10.596;2023-05-10T02:34:49;4.00;;;3.70;;
11046;SDS011;5576;50.008;10.596;2023-05-10T02:37:18;5.13;;;3.90;;
11046;SDS011;5576;50.008;10.596;2023-05-10T02:39:46;4.30;;;3.83;;
11046;SDS011;5576;50.008;10.596;2023-05-10T02:42:16;4.43;;;4.00;;
11046;SDS011;5576;50.008;10.596;2023-05-10T02:44:45;4.25;;;3.80;;
11046;SDS011;5576;50.008;10.596;2023-05-10T02:47:14;7.55;;;3.95;;
11046;SDS011;5576;50.008;10.596;2023-05-10T02:49:40;3.70;;;3.40;;
11046;SDS011;5576;50.008;10.596;2023-05-10T02:52:07;3.70;;;3.40;;
11046;SDS011;5576;50.008;10.596;2023-05-10T02:54:50;3.22;;;2.92;;
11046;SDS011;5576;50.008;10.596;2023-05-10T02:57:22;4.50;;;3.47;;
11046;SDS011;5576;50.008;10.596;2023-05-10T02:59:51;3.75;;;3.45;;
11046;SDS011;5576;50.008;10.596;2023-05-10T03:02:17;3.83;;;3.53;;
11046;SDS011;5576;50.008;10.596;2023-05-10T03:04:43;4.50;;;4.10;;
11046;SDS011;5576;50.008;10.596;2023-05-10T03:07:09;3.28;;;2.75;;
11046;SDS011;5576;50.008;10.596;2023-05-10T03:09:35;4.70;;;4.30;;
11046;SDS011;5576;50.008;10.596;2023-05-10T03:12:07;4.97;;;3.88;;
11046;SDS011;5576;50.008;10.596;2023-05-10T03:15:00;3.90;;;3.45;;
11046;SDS011;5576;50.008;10.596;2023-05-10T03:20:21;1.35;;;1.25;;
11046;SDS011;5576;50.008;10.596;2023-05-10T03:22:55;2.00;;;1.00;;
11046;SDS011;5576;50.008;10.596;2023-05-10T03:25:29;1.73;;;1.00;;
11046;SDS011;5576;50.008;10.596;2023-05-10T03:27:56;0.75;;;0.75;;
11046;SDS011;5576;50.008;10.596;2023-05-10T03:30:24;1.15;;;0.80;;
11046;SDS011;5576;50.008;10.596;2023-05-10T03:32:50;1.10;;;0.80;;
11046;SDS011;5576;50.008;10.596;2023-05-10T03:35:17;0.70;;;0.67;;
11046;SDS011;5576;50.008;10.596;2023-05-10T03:37:43;0.93;;;0.70;;
11046;SDS011;5576;50.008;10.596;2023-05-10T03:40:09;0.70;;;0.70;;
11046;SDS011;5576;50.008;10.596;2023-05-10T03:42:37;1.10;;;0.60;;
11046;SDS011;5576;50.008;10.596;2023-05-10T03:45:03;0.65;;;0.60;;
11046;SDS011;5576;50.008;10.596;2023-05-10T03:47:29;0.60;;;0.60;;
11046;SDS011;5576;50.008;10.596;2023-05-10T03:49:55;1.00;;;0.60;;
11046;SDS011;5576;50.008;10.596;2023-05-10T03:52:21;1.02;;;0.70;;
11046;SDS011;5576;50.008;10.596;2023-05-10T03:54:47;0.70;;;0.70;;
11046;SDS011;5576;50.008;10.596;2023-05-10T03:57:14;0.70;;;0.70;;
11046;SDS011;5576;50.008;10.596;2023-05-10T03:59:39;0.70;;;0.70;;
11046;SDS011;5576;50.008;10.596;2023-05-10T04:02:05;1.30;;;0.60;;
11046;SDS011;5576;50.008;10.596;2023-05-10T04:04:31;0.63;;;0.63;;
11046;SDS011;5576;50.008;10.596;2023-05-10T04:06:57;0.60;;;0.60;;
11046;SDS011;5576;50.008;10.596;2023-05-10T04:09:23;1.05;;;0.73;;
11046;SDS011;5576;50.008;10.596;2023-05-10T04:11:49;0.65;;;0.50;;
11046;SDS011;5576;50.008;10.596;2023-05-10T04:14:15;0.67;;;0.60;;
11046;SDS011;5576;50.008;10.596;2023-05-10T04:16:41;0.70;;;0.70;;
11046;SDS011;5576;50.008;10.596;2023-05-10T04:19:07;1.70;;;0.60;;
11046;SDS011;5576;50.008;10.596;2023-05-10T04:21:32;0.50;;;0.50;;
11046;SDS011;5576;50.008;10.596;2023-05-10T04:23:58;0.40;;;0.40;;
11046;SDS011;5576;50.008;10.596;2023-05-10T04:26:24;0.40;;;0.40;;
11046;SDS011;5576;50.008;10.596;2023-05-10T04:28:50;0.60;;;0.50;;
11046;SDS011;5576;50.008;10.596;2023-05-10T04:31:16;0.45;;;0.45;;
11046;SDS011;5576;50.008;10.596;2023-05-10T04:33:42;1.73;;;0.77;;
11046;SDS011;5576;50.008;10.596;2023-05-10T04:36:08;0.50;;;0.50;;
11046;SDS011;5576;50.008;10.596;2023-05-10T04:38:33;0.83;;;0.60;;
11046;SDS011;5576;50.008;10.596;2023-05-10T04:41:07;0.98;;;0.60;;
11046;SDS011;5576;50.008;10.596;2023-05-10T04:43:34;0.60;;;0.60;;
11046;SDS011;5576;50.008;10.596;2023-05-10T04:46:00;0.57;;;0.52;;
11046;SDS011;5576;50.008;10.596;2023-05-10T04:48:26;0.50;;;0.50;;
11046;SDS011;5576;50.008;10.596;2023-05-10T04:50:52;0.65;;;0.50;;
11046;SDS011;5576;50.008;10.596;2023-05-10T04:53:18;0.70;;;0.52;;
11046;SDS011;5576;50.008;10.596;2023-05-10T04:55:43;0.63;;;0.60;;
11046;SDS011;5576;50.008;10.596;2023-05-10T04:58:09;0.77;;;0.75;;
11046;SDS011;5576;50.008;10.596;2023-05-10T05:00:35;1.10;;;0.60;;
11046;SDS011;5576;50.008;10.596;2023-05-10T05:03:01;0.50;;;0.50;;
11046;SDS011;5576;50.008;10.596;2023-05-10T05:05:27;0.88;;;0.60;;
11046;SDS011;5576;50.008;10.596;2023-05-10T05:07:52;0.80;;;0.50;;
11046;SDS011;5576;50.008;10.596;2023-05-10T05:10:18;0.55;;;0.55;;
11046;SDS011;5576;50.008;10.596;2023-05-10T05:12:44;0.50;;;0.50;;
11046;SDS011;5576;50.008;10.596;2023-05-10T05:15:09;0.93;;;0.50;;
11046;SDS011;5576;50.008;10.596;2023-05-10T05:17:36;0.50;;;0.50;;
11046;SDS011;5576;50.008;10.596;2023-05-10T05:20:02;1.60;;;0.50;;
11046;SDS011;5576;50.008;10.596;2023-05-10T05:22:28;0.60;;;0.60;;
11046;SDS011;5576;50.008;10.596;2023-05-10T05:24:54;0.50;;;0.50;;
11046;SDS011;5576;50.008;10.596;2023-05-10T05:27:20;1.20;;;0.70;;
11046;SDS011;5576;50.008;10.596;2023-05-10T05:29:50;0.50;;;0.50;;
11046;SDS011;5576;50.008;10.596;2023-05-10T05:32:17;0.60;;;0.60;;
11046;SDS011;5576;50.008;10.596;2023-05-10T05:34:44;0.82;;;0.63;;
11046;SDS011;5576;50.008;10.596;2023-05-10T05:37:14;0.57;;;0.57;;
11046;SDS011;5576;50.008;10.596;2023-05-10T05:39:40;0.70;;;0.70;;
11046;SDS011;5576;50.008;10.596;2023-05-10T05:42:07;0.90;;;0.70;;
11046;SDS011;5576;50.008;10.596;2023-05-10T05:44:34;0.90;;;0.73;;
11046;SDS011;5576;50.008;10.596;2023-05-10T05:47:00;1.00;;;0.90;;
11046;SDS011;5576;50.008;10.596;2023-05-10T05:49:25;0.80;;;0.80;;
11046;SDS011;5576;50.008;10.596;2023-05-10T05:51:51;0.70;;;0.70;;
11046;SDS011;5576;50.008;10.596;2023-05-10T05:54:17;0.95;;;0.80;;
11046;SDS011;5576;50.008;10.596;2023-05-10T05:56:43;1.80;;;1.10;;
11046;SDS011;5576;50.008;10.596;2023-05-10T05:59:09;1.87;;;1.00;;
11046;SDS011;5576;50.008;10.596;2023-05-10T06:01:35;0.88;;;0.80;;
11046;SDS011;5576;50.008;10.596;2023-05-10T06:04:01;0.98;;;0.70;;
11046;SDS011;5576;50.008;10.596;2023-05-10T06:06:27;0.80;;;0.80;;
11046;SDS011;5576;50.008;10.596;2023-05-10T06:08:53;0.80;;;0.60;;
11046;SDS011;5576;50.008;10.596;2023-05-10T06:11:19;0.60;;;0.60;;
11046;SDS011;5576;50.008;10.596;2023-05-10T06:13:46;0.60;;;0.60;;
11046;SDS011;5576;50.008;10.596;2023-05-10T06:16:12;0.75;;;0.75;;
11046;SDS011;5576;50.008;10.596;2023-05-10T06:18:39;1.20;;;0.70;;
11046;SDS011;5576;50.008;10.596;2023-05-10T06:21:04;1.60;;;0.63;;
11046;SDS011;5576;50.008;10.596;2023-05-10T06:23:30;0.63;;;0.63;;
11046;SDS011;5576;50.008;10.596;2023-05-10T06:25:56;0.70;;;0.70;;
11046;SDS011;5576;50.008;10.596;2023-05-10T06:28:21;0.70;;;0.70;;
11046;SDS011;5576;50.008;10.596;2023-05-10T06:30:47;0.83;;;0.70;;
11046;SDS011;5576;50.008;10.596;2023-05-10T06:33:13;1.25;;;0.75;;
11046;SDS011;5576;50.008;10.596;2023-05-10T06:35:39;0.70;;;0.60;;
11046;SDS011;5576;50.008;10.596;2023-05-10T06:38:05;1.23;;;0.60;;
11046;SDS011;5576;50.008;10.596;2023-05-10T06:40:30;0.57;;;0.50;;
11046;SDS011;5576;50.008;10.596;2023-05-10T06:42:56;1.55;;;0.50;;
11046;SDS011;5576;50.008;10.596;2023-05-10T06:45:22;0.97;;;0.70;;
11046;SDS011;5576;50.008;10.596;2023-05-10T06:47:47;0.70;;;0.60;;
11046;SDS011;5576;50.008;10.596;2023-05-10T06:50:13;0.77;;;0.60;;
11046;SDS011;5576;50.008;10.596;2023-05-10T06:52:39;0.73;;;0.50;;
11046;SDS011;5576;50.008;10.596;2023-05-10T06:55:05;1.03;;;0.60;;
11046;SDS011;5576;50.008;10.596;2023-05-10T06:57:31;2.30;;;0.73;;
11046;SDS011;5576;50.008;10.596;2023-05-10T06:59:57;0.73;;;0.70;;
11046;SDS011;5576;50.008;10.596;2023-05-10T07:02:24;0.50;;;0.50;;
11046;SDS011;5576;50.008;10.596;2023-05-10T07:04:49;0.90;;;0.60;;
11046;SDS011;5576;50.008;10.596;2023-05-10T07:07:17;1.02;;;0.80;;
11046;SDS011;5576;50.008;10.596;2023-05-10T07:09:42;1.30;;;0.80;;
11046;SDS011;5576;50.008;10.596;2023-05-10T07:12:08;0.70;;;0.57;;
11046;SDS011;5576;50.008;10.596;2023-05-10T07:14:34;1.33;;;0.60;;
11046;SDS011;5576;50.008;10.596;2023-05-10T07:17:00;0.60;;;0.60;;
11046;SDS011;5576;50.008;10.596;2023-05-10T07:19:26;1.45;;;0.80;;
11046;SDS011;5576;50.008;10.596;2023-05-10T07:21:52;1.13;;;0.80;;
11046;SDS011;5576;50.008;10.596;2023-05-10T07:24:17;1.10;;;0.70;;
11046;SDS011;5576;50.008;10.596;2023-05-10T07:26:43;0.57;;;0.57;;
11046;SDS011;5576;50.008;10.596;2023-05-10T07:29:09;1.73;;;1.00;;
11046;SDS011;5576;50.008;10.596;2023-05-10T07:31:35;1.65;;;0.80;;
11046;SDS011;5576;50.008;10.596;2023-05-10T07:34:00;1.00;;;0.80;;
11046;SDS011;5576;50.008;10.596;2023-05-10T07:36:26;0.50;;;0.50;;
11046;SDS011;5576;50.008;10.596;2023-05-10T07:38:52;0.75;;;0.60;;
11046;SDS011;5576;50.008;10.596;2023-05-10T07:41:18;0.70;;;0.70;;
11046;SDS011;5576;50.008;10.596;2023-05-10T07:43:44;1.70;;;0.70;;
11046;SDS011;5576;50.008;10.596;2023-05-10T07:46:09;1.40;;;0.60;;
11046;SDS011;5576;50.008;10.596;2023-05-10T07:48:36;0.68;;;0.60;;
11046;SDS011;5576;50.008;10.596;2023-05-10T07:51:02;0.85;;;0.80;;
11046;SDS011;5576;50.008;10.596;2023-05-10T07:53:28;2.05;;;0.80;;
11046;SDS011;5576;50.008;10.596;2023-05-10T07:55:54;1.00;;;0.70;;
11046;SDS011;5576;50.008;10.596;2023-05-10T07:58:23;0.93;;;0.70;;
11046;SDS011;5576;50.008;10.596;2023-05-10T08:00:49;0.70;;;0.70;;
11046;SDS011;5576;50.008;10.596;2023-05-10T08:03:15;0.75;;;0.75;;
11046;SDS011;5576;50.008;10.596;2023-05-10T08:05:41;0.60;;;0.60;;
11046;SDS011;5576;50.008;10.596;2023-05-10T08:08:06;0.80;;;0.80;;
11046;SDS011;5576;50.008;10.596;2023-05-10T08:10:32;0.77;;;0.70;;
11046;SDS011;5576;50.008;10.596;2023-05-10T08:12:58;1.38;;;0.77;;
11046;SDS011;5576;50.008;10.596;2023-05-10T08:15:24;2.50;;;0.90;;
11046;SDS011;5576;50.008;10.596;2023-05-10T08:17:51;1.30;;;0.77;;
11046;SDS011;5576;50.008;10.596;2023-05-10T08:20:17;1.10;;;0.73;;
11046;SDS011;5576;50.008;10.596;2023-05-10T08:22:45;1.20;;;0.80;;
11046;SDS011;5576;50.008;10.596;2023-05-10T08:25:11;0.75;;;0.75;;
11046;SDS011;5576;50.008;10.596;2023-05-10T08:27:37;1.08;;;0.70;;
11046;SDS011;5576;50.008;10.596;2023-05-10T08:30:03;0.70;;;0.70;;
11046;SDS011;5576;50.008;10.596;2023-05-10T08:32:29;1.10;;;0.80;;
11046;SDS011;5576;50.008;10.596;2023-05-10T08:34:55;1.42;;;0.95;;
11046;SDS011;5576;50.008;10.596;2023-05-10T08:37:22;1.42;;;0.82;;
11046;SDS011;5576;50.008;10.596;2023-05-10T08:39:48;1.27;;;0.73;;
11046;SDS011;5576;50.008;10.596;2023-05-10T08:42:15;1.33;;;0.63;;
11046;SDS011;5576;50.008;10.596;2023-05-10T08:44:45;1.65;;;0.70;;
11046;SDS011;5576;50.008;10.596;2023-05-10T08:47:13;1.10;;;0.77;;
11046;SDS011;5576;50.008;10.596;2023-05-10T08:49:41;1.30;;;0.90;;
11046;SDS011;5576;50.008;10.596;2023-05-10T08:52:09;1.30;;;0.90;;
11046;SDS011;5576;50.008;10.596;2023-05-10T08:54:37;1.30;;;1.20;;
11046;SDS011;5576;50.008;10.596;2023-05-10T08:57:03;1.10;;;1.00;;
11046;SDS011;5576;50.008;10.596;2023-05-10T08:59:29;1.13;;;1.00;;
11046;SDS011;5576;50.008;10.596;2023-05-10T09:01:57;1.23;;;1.13;;
11046;SDS011;5576;50.008;10.596;2023-05-10T09:04:24;1.30;;;1.00;;
11046;SDS011;5576;50.008;10.596;2023-05-10T09:06:50;1.23;;;1.00;;
11046;SDS011;5576;50.008;10.596;2023-05-10T09:09:16;1.70;;;1.00;;
11046;SDS011;5576;50.008;10.596;2023-05-10T09:11:43;0.97;;;0.90;;
11046;SDS011;5576;50.008;10.596;2023-05-10T09:14:10;2.05;;;1.40;;
11046;SDS011;5576;50.008;10.596;2023-05-10T09:16:37;1.65;;;1.20;;
11046;SDS011;5576;50.008;10.596;2023-05-10T09:19:03;1.45;;;1.35;;
11046;SDS011;5576;50.008;10.596;2023-05-10T09:21:29;1.20;;;1.10;;
11046;SDS011;5576;50.008;10.596;2023-05-10T09:23:56;1.52;;;0.90;;
11046;SDS011;5576;50.008;10.596;2023-05-10T09:26:22;1.35;;;0.90;;
11046;SDS011;5576;50.008;10.596;2023-05-10T09:28:52;0.98;;;0.98;;
11046;SDS011;5576;50.008;10.596;2023-05-10T09:31:20;1.42;;;1.17;;
11046;SDS011;5576;50.008;10.596;2023-05-10T09:33:47;2.42;;;1.73;;
11046;SDS011;5576;50.008;10.596;2023-05-10T09:36:14;2.00;;;1.80;;
11046;SDS011;5576;50.008;10.596;2023-05-10T09:38:56;2.28;;;1.48;;
11046;SDS011;5576;50.008;10.596;2023-05-10T09:41:22;1.30;;;1.20;;
11046;SDS011;5576;50.008;10.596;2023-05-10T09:43:49;1.90;;;1.50;;
11046;SDS011;5576;50.008;10.596;2023-05-10T09:46:15;2.23;;;1.30;;
11046;SDS011;5576;50.008;10.596;2023-05-10T09:48:42;1.73;;;1.60;;
11046;SDS011;5576;50.008;10.596;2023-05-10T09:51:09;2.65;;;1.60;;
11046;SDS011;5576;50.008;10.596;2023-05-10T09:53:35;1.87;;;1.60;;
11046;SDS011;5576;50.008;10.596;2023-05-10T09:56:01;2.63;;;1.45;;
11046;SDS011;5576;50.008;10.596;2023-05-10T09:58:27;1.50;;;1.30;;
11046;SDS011;5576;50.008;10.596;2023-05-10T10:00:53;2.67;;;1.60;;
11046;SDS011;5576;50.008;10.596;2023-05-10T10:03:20;1.60;;;1.40;;
11046;SDS011;5576;50.008;10.596;2023-05-10T10:05:47;1.67;;;1.40;;
11046;SDS011;5576;50.008;10.596;2023-05-10T10:08:14;1.65;;;1.50;;
11046;SDS011;5576;50.008;10.596;2023-05-10T10:10:41;1.90;;;1.50;;
11046;SDS011;5576;50.008;10.596;2023-05-10T10:13:09;1.40;;;1.30;;
11046;SDS011;5576;50.008;10.596;2023-05-10T10:15:35;1.58;;;1.40;;
11046;SDS011;5576;50.008;10.596;2023-05-10T10:18:01;1.33;;;1.23;;
11046;SDS011;5576;50.008;10.596;2023-05-10T10:20:29;2.22;;;1.50;;
11046;SDS011;5576;50.008;10.596;2023-05-10T10:22:55;2.10;;;1.50;;
11046;SDS011;5576;50.008;10.596;2023-05-10T10:25:20;1.48;;;1.38;;
11046;SDS011;5576;50.008;10.596;2023-05-10T10:28:08;1.70;;;1.40;;
11046;SDS011;5576;50.008;10.596;2023-05-10T10:30:47;2.50;;;1.65;;
11046;SDS011;5576;50.008;10.596;2023-05-10T10:35:49;2.25;;;1.35;;
11046;SDS011;5576;50.008;10.596;2023-05-10T10:38:17;1.60;;;1.02;;
11046;SDS011;5576;50.008;10.596;2023-05-10T10:40:43;1.50;;;1.00;;
11046;SDS011;5576;50.008;10.596;2023-05-10T10:43:25;1.98;;;1.15;;
11046;SDS011;5576;50.008;10.596;2023-05-10T10:48:39;2.95;;;1.20;;
11046;SDS011;5576;50.008;10.596;2023-05-10T10:51:12;1.52;;;0.90;;
11046;SDS011;5576;50.008;10.596;2023-05-10T10:53:39;1.33;;;0.90;;
11046;SDS011;5576;50.008;10.596;2023-05-10T10:56:06;2.10;;;0.90;;
11046;SDS011;5576;50.008;10.596;2023-05-10T10:58:34;2.00;;;1.00;;
11046;SDS011;5576;50.008;10.596;2023-05-10T11:01:18;1.40;;;1.00;;
11046;SDS011;5576;50.008;10.596;2023-05-10T11:06:29;1.20;;;1.05;;
11046;SDS011;5576;50.008;10.596;2023-05-10T11:08:57;2.90;;;1.10;;
11046;SDS011;5576;50.008;10.596;2023-05-10T11:11:24;1.67;;;1.13;;
11046;SDS011;5576;50.008;10.596;2023-05-10T11:13:50;1.85;;;1.17;;
11046;SDS011;5576;50.008;10.596;2023-05-10T11:16:17;1.98;;;1.15;;
11046;SDS011;5576;50.008;10.596;2023-05-10T11:19:01;2.40;;;1.13;;
11046;SDS011;5576;50.008;10.596;2023-05-10T11:21:29;1.42;;;1.30;;
11046;SDS011;5576;50.008;10.596;2023-05-10T11:23:56;2.10;;;1.40;;
11046;SDS011;5576;50.008;10.596;2023-05-10T11:26:24;3.08;;;1.40;;
11046;SDS011;5576;50.008;10.596;2023-05-10T11:28:52;2.67;;;1.50;;
11046;SDS011;5576;50.008;10.596;2023-05-10T11:31:20;2.67;;;1.58;;
11046;SDS011;5576;50.008;10.596;2023-05-10T11:33:51;2.53;;;1.40;;
11046;SDS011;5576;50.008;10.596;2023-05-10T11:36:19;1.52;;;1.30;;
11046;SDS011;5576;50.008;10.596;2023-05-10T11:38:47;1.30;;;1.20;;
11046;SDS011;5576;50.008;10.596;2023-05-10T11:41:14;1.58;;;1.27;;
11046;SDS011;5576;50.008;10.596;2023-05-10T11:43:42;2.33;;;1.30;;
11046;SDS011;5576;50.008;10.596;2023-05-10T11:46:10;2.27;;;1.20;;
11046;SDS011;5576;50.008;10.596;2023-05-10T11:48:38;1.67;;;1.23;;
11046;SDS011;5576;50.008;10.596;2023-05-10T11:51:04;1.53;;;1.10;;
11046;SDS011;5576;50.008;10.596;2023-05-10T11:53:32;1.98;;;1.10;;
11046;SDS011;5576;50.008;10.596;2023-05-10T11:56:06;1.20;;;1.00;;
11046;SDS011;5576;50.008;10.596;2023-05-10T11:58:33;1.20;;;1.07;;
11046;SDS011;5576;50.008;10.596;2023-05-10T12:01:00;1.77;;;1.00;;
11046;SDS011;5576;50.008;10.596;2023-05-10T12:03:27;1.13;;;0.90;;
11046;SDS011;5576;50.008;10.596;2023-05-10T12:05:54;1.80;;;1.00;;
11046;SDS011;5576;50.008;10.596;2023-05-10T12:08:22;1.13;;;0.90;;
11046;SDS011;5576;50.008;10.596;2023-05-10T12:10:50;1.83;;;0.88;;
11046;SDS011;5576;50.008;10.596;2023-05-10T12:13:17;1.10;;;0.90;;
11046;SDS011;5576;50.008;10.596;2023-05-10T12:15:43;1.53;;;0.90;;
11046;SDS011;5576;50.008;10.596;2023-05-10T12:18:10;1.15;;;0.88;;
11046;SDS011;5576;50.008;10.596;2023-05-10T12:20:37;1.60;;;0.90;;
11046;SDS011;5576;50.008;10.596;2023-05-10T12:23:03;1.63;;;0.90;;
11046;SDS011;5576;50.008;10.596;2023-05-10T12:25:34;0.95;;;0.80;;
11046;SDS011;5576;50.008;10.596;2023-05-10T12:28:03;1.25;;;0.77;;
11046;SDS011;5576;50.008;10.596;2023-05-10T12:30:31;1.13;;;0.90;;
11046;SDS011;5576;50.008;10.596;2023-05-10T12:33:02;1.10;;;1.00;;
11046;SDS011;5576;50.008;10.596;2023-05-10T12:35:32;1.10;;;0.90;;
11046;SDS011;5576;50.008;10.596;2023-05-10T12:37:58;1.30;;;1.00;;
11046;SDS011;5576;50.008;10.596;2023-05-10T12:40:24;0.98;;;0.70;;
11046;SDS011;5576;50.008;10.596;2023-05-10T12:42:50;1.35;;;0.80;;
11046;SDS011;5576;50.008;10.596;2023-05-10T12:45:17;1.45;;;0.70;;
11046;SDS011;5576;50.008;10.596;2023-05-10T12:47:43;1.02;;;0.77;;
11046;SDS011;5576;50.008;10.596;2023-05-10T12:50:09;0.88;;;0.70;;
11046;SDS011;5576;50.008;10.596;2023-05-10T12:52:35;1.17;;;0.80;;
11046;SDS011;5576;50.008;10.596;2023-05-10T12:55:01;0.90;;;0.70;;
11046;SDS011;5576;50.008;10.596;2023-05-10T12:57:28;0.90;;;0.70;;
11046;SDS011;5576;50.008;10.596;2023-05-10T12:59:54;0.80;;;0.80;;
11046;SDS011;5576;50.008;10.596;2023-05-10T13:02:20;2.28;;;1.08;;
11046;SDS011;5576;50.008;10.596;2023-05-10T13:04:46;1.60;;;1.20;;
11046;SDS011;5576;50.008;10.596;2023-05-10T13:07:13;1.65;;;1.10;;
11046;SDS011;5576;50.008;10.596;2023-05-10T13:09:39;0.80;;;0.80;;
11046;SDS011;5576;50.008;10.596;2023-05-10T13:12:05;3.70;;;1.40;;
11046;SDS011;5576;50.008;10.596;2023-05-10T13:14:30;2.72;;;2.15;;
11046;SDS011;5576;50.008;10.596;2023-05-10T13:16:56;4.23;;;3.40;;
11046;SDS011;5576;50.008;10.596;2023-05-10T13:19:22;3.08;;;1.90;;
11046;SDS011;5576;50.008;10.596;2023-05-10T13:21:48;2.60;;;1.17;;
11046;SDS011;5576;50.008;10.596;2023-05-10T13:24:13;1.48;;;1.20;;
11046;SDS011;5576;50.008;10.596;2023-05-10T13:26:40;1.67;;;1.00;;
11046;SDS011;5576;50.008;10.596;2023-05-10T13:29:06;1.50;;;1.00;;
11046;SDS011;5576;50.008;10.596;2023-05-10T13:31:33;1.80;;;1.40;;
11046;SDS011;5576;50.008;10.596;2023-05-10T13:33:59;1.85;;;1.67;;
11046;SDS011;5576;50.008;10.596;2023-05-10T13:36:25;2.50;;;1.08;;
11046;SDS011;5576;50.008;10.596;2023-05-10T13:38:51;6.03;;;4.57;;
11046;SDS011;5576;50.008;10.596;2023-05-10T13:41:17;3.50;;;2.85;;
11046;SDS011;5576;50.008;10.596;2023-05-10T13:43:43;2.20;;;1.10;;
11046;SDS011;5576;50.008;10.596;2023-05-10T13:46:09;6.05;;;5.45;;
11046;SDS011;5576;50.008;10.596;2023-05-10T13:48:34;2.40;;;2.03;;
11046;SDS011;5576;50.008;10.596;2023-05-10T13:51:02;2.05;;;1.20;;
11046;SDS011;5576;50.008;10.596;2023-05-10T13:53:29;2.05;;;1.05;;
11046;SDS011;5576;50.008;10.596;2023-05-10T13:55:54;1.20;;;1.10;;
11046;SDS011;5576;50.008;10.596;2023-05-10T13:58:20;1.50;;;1.02;;
11046;SDS011;5576;50.008;10.596;2023-05-10T14:00:46;2.67;;;1.03;;
11046;SDS011;5576;50.008;10.596;2023-05-10T14:03:13;2.37;;;1.20;;
11046;SDS011;5576;50.008;10.596;2023-05-10T14:05:38;2.28;;;1.42;;
11046;SDS011;5576;50.008;10.596;2023-05-10T14:08:04;2.37;;;1.40;;
11046;SDS011;5576;50.008;10.596;2023-05-10T14:10:30;2.30;;;1.10;;
11046;SDS011;5576;50.008;10.596;2023-05-10T14:12:56;1.90;;;1.20;;
11046;SDS011;5576;50.008;10.596;2023-05-10T14:15:21;2.47;;;1.20;;
11046;SDS011;5576;50.008;10.596;2023-05-10T14:17:47;1.17;;;0.90;;
11046;SDS011;5576;50.008;10.596;2023-05-10T14:20:13;1.57;;;1.00;;
11046;SDS011;5576;50.008;10.596;2023-05-10T14:22:39;1.40;;;1.00;;
11046;SDS011;5576;50.008;10.596;2023-05-10T14:25:05;1.00;;;0.80;;
11046;SDS011;5576;50.008;10.596;2023-05-10T14:27:31;1.10;;;0.90;;
11046;SDS011;5576;50.008;10.596;2023-05-10T14:29:57;0.85;;;0.80;;
11046;SDS011;5576;50.008;10.596;2023-05-10T14:32:23;1.08;;;0.90;;
11046;SDS011;5576;50.008;10.596;2023-05-10T14:34:49;1.00;;;0.90;;
11046;SDS011;5576;50.008;10.596;2023-05-10T14:37:16;1.70;;;0.90;;
11046;SDS011;5576;50.008;10.596;2023-05-10T14:39:41;1.17;;;0.90;;
11046;SDS011;5576;50.008;10.596;2023-05-10T14:42:07;0.85;;;0.80;;
11046;SDS011;5576;50.008;10.596;2023-05-10T14:44:34;1.33;;;0.70;;
11046;SDS011;5576;50.008;10.596;2023-05-10T14:46:59;1.53;;;0.70;;
11046;SDS011;5576;50.008;10.596;2023-05-10T14:49:25;2.45;;;0.93;;
11046;SDS011;5576;50.008;10.596;2023-05-10T14:51:51;0.80;;;0.63;;
11046;SDS011;5576;50.008;10.596;2023-05-10T14:54:17;0.77;;;0.63;;
11046;SDS011;5576;50.008;10.596;2023-05-10T14:56:43;1.42;;;0.50;;
11046;SDS011;5576;50.008;10.596;2023-05-10T14:59:09;0.70;;;0.55;;
11046;SDS011;5576;50.008;10.596;2023-05-10T15:01:35;0.50;;;0.40;;
11046;SDS011;5576;50.008;10.596;2023-05-10T15:04:03;0.40;;;0.40;;
11046;SDS011;5576;50.008;10.596;2023-05-10T15:06:31;1.90;;;0.60;;
11046;SDS011;5576;50.008;10.596;2023-05-10T15:08:58;0.82;;;0.70;;